Time;durP1;ratioP1;P1;durP2;ratioP2;P2;SDS_P1;SDS_P2;PMS_P1;PMS_P2;Temp;Humidity;BMP_temperature;BMP_pressure;BME280_temperature;BME280_humidity;BME280_pressure;Samples;Min_cycle;Max_cycle;Signal;HPM_P1;HPM_P2
2020/12/05 00:02:21;;;;;;;24.73;11.93;;;3.90;84.90;;;;;;4955326;28;20356;-81
2020/12/05 00:04:46;;;;;;;22.43;12.00;;;5.40;81.10;;;;;;4957415;28;20038;-80
2020/12/05 00:07:13;;;;;;;25.13;12.03;;;5.40;80.60;;;;;;4981656;28;20118;-81
2020/12/05 00:09:39;;;;;;;24.17;11.17;;;5.20;79.90;;;;;;4980218;28;20028;-81
2020/12/05 00:12:06;;;;;;;23.03;11.87;;;5.80;86.70;;;;;;4967994;28;20085;-81
2020/12/05 00:14:32;;;;;;;25.60;12.43;;;5.30;81.00;;;;;;4965816;28;20018;-80
2020/12/05 00:16:58;;;;;;;30.13;12.80;;;5.20;82.00;;;;;;4971191;28;20094;-80
2020/12/05 00:19:24;;;;;;;27.30;12.17;;;5.20;82.40;;;;;;4961989;28;20123;-80
2020/12/05 00:21:54;;;;;;;26.03;12.20;;;5.20;82.60;;;;;;4967087;28;20022;-80
2020/12/05 00:24:20;;;;;;;27.40;12.30;;;5.10;82.20;;;;;;4962723;28;20365;-79
2020/12/05 00:26:50;;;;;;;27.57;12.90;;;5.10;82.30;;;;;;4951010;28;20031;-80
2020/12/05 00:29:16;;;;;;;26.60;12.90;;;5.10;82.50;;;;;;4943435;29;20038;-80
2020/12/05 00:31:41;;;;;;;23.50;12.53;;;5.10;82.60;;;;;;4949675;28;20030;-80
2020/12/05 00:34:07;;;;;;;27.83;12.90;;;5.10;82.70;;;;;;4962024;28;20023;-79
2020/12/05 00:36:33;;;;;;;25.97;12.40;;;5.10;82.80;;;;;;4972227;28;20033;-79
2020/12/05 00:38:58;;;;;;;28.67;12.77;;;5.00;82.40;;;;;;4976566;28;20061;-78
2020/12/05 00:41:24;;;;;;;24.83;12.03;;;5.00;82.70;;;;;;4993885;28;20081;-79
2020/12/05 00:43:50;;;;;;;29.17;13.00;;;5.00;82.60;;;;;;4976906;28;20419;-78
2020/12/05 00:46:15;;;;;;;27.50;12.80;;;4.90;83.00;;;;;;4993687;28;20462;-79
2020/12/05 00:48:41;;;;;;;29.93;12.87;;;4.90;83.20;;;;;;4977074;28;20029;-79
2020/12/05 00:51:06;;;;;;;26.50;12.97;;;5.00;83.40;;;;;;4976360;28;20390;-80
2020/12/05 00:53:32;;;;;;;28.23;13.07;;;5.00;83.20;;;;;;4993758;28;20068;-79
2020/12/05 00:55:58;;;;;;;28.13;13.83;;;5.00;82.90;;;;;;4992869;28;20470;-78
2020/12/05 00:58:23;;;;;;;26.20;12.70;;;5.00;82.90;;;;;;4975774;28;20066;-79
2020/12/05 01:00:49;;;;;;;27.27;13.17;;;5.00;83.00;;;;;;4992955;28;20019;-79
2020/12/05 01:03:14;;;;;;;28.63;13.53;;;5.00;83.10;;;;;;4992085;28;20035;-79
2020/12/05 01:05:40;;;;;;;26.37;12.43;;;5.00;83.70;;;;;;4992444;28;20031;-79
2020/12/05 01:08:07;;;;;;;28.07;13.43;;;4.90;84.00;;;;;;4993660;28;20030;-79
2020/12/05 01:10:33;;;;;;;30.10;13.97;;;4.90;84.30;;;;;;4976665;28;20158;-79
2020/12/05 01:13:02;;;;;;;30.90;13.47;;;4.90;84.50;;;;;;4993846;28;20052;-78
2020/12/05 01:15:31;;;;;;;29.03;13.30;;;4.90;84.60;;;;;;4976031;28;20371;-78
2020/12/05 01:17:57;;;;;;;29.63;14.07;;;4.90;84.80;;;;;;4976745;28;20111;-78
2020/12/05 01:20:23;;;;;;;27.63;14.03;;;4.90;84.60;;;;;;4976316;28;20443;-78
2020/12/05 01:22:49;;;;;;;31.03;13.57;;;4.90;84.70;;;;;;4993788;28;20033;-78
2020/12/05 01:25:15;;;;;;;32.17;13.87;;;4.90;84.70;;;;;;4993403;28;20042;-78
2020/12/05 01:27:40;;;;;;;27.13;13.73;;;4.90;84.70;;;;;;4992687;28;20057;-78
2020/12/05 01:30:06;;;;;;;29.70;13.50;;;4.90;84.80;;;;;;4993282;28;20060;-79
2020/12/05 01:32:32;;;;;;;27.57;13.23;;;4.90;84.80;;;;;;4992831;28;20027;-78
2020/12/05 01:34:57;;;;;;;27.83;13.37;;;4.90;84.70;;;;;;4992740;28;20025;-77
2020/12/05 01:37:23;;;;;;;31.37;13.73;;;4.90;85.10;;;;;;4991929;28;20030;-78
2020/12/05 01:39:49;;;;;;;35.53;14.93;;;4.90;85.10;;;;;;4976251;28;20054;-78
2020/12/05 01:42:14;;;;;;;32.77;15.10;;;4.70;85.80;;;;;;4975581;28;20070;-77
2020/12/05 01:44:40;;;;;;;31.47;14.37;;;4.70;87.00;;;;;;4979616;28;20026;-78
2020/12/05 01:47:06;;;;;;;31.10;14.30;;;4.70;86.30;;;;;;4997498;28;20030;-77
2020/12/05 01:49:32;;;;;;;32.00;14.57;;;4.70;86.80;;;;;;4996412;28;20084;-78
2020/12/05 01:51:59;;;;;;;29.57;13.73;;;4.70;86.80;;;;;;4997218;28;20022;-78
2020/12/05 01:54:25;;;;;;;27.60;13.93;;;4.70;86.70;;;;;;4979290;28;20360;-78
2020/12/05 01:56:59;;;;;;;28.67;13.70;;;4.80;86.60;;;;;;4979736;28;20022;-78
2020/12/05 01:59:25;;;;;;;28.37;13.33;;;4.80;87.20;;;;;;4996820;28;20026;-79
2020/12/05 02:01:53;;;;;;;29.30;13.50;;;4.70;87.20;;;;;;4979863;28;20018;-78
2020/12/05 02:04:18;;;;;;;30.77;13.77;;;4.70;87.20;;;;;;4995426;28;20125;-78
2020/12/05 02:07:03;;;;;;;28.20;13.20;;;4.80;87.10;;;;;;4996938;28;20058;-78
2020/12/05 02:09:36;;;;;;;29.33;13.47;;;4.80;87.20;;;;;;4978976;28;20018;-78
2020/12/05 02:12:24;;;;;;;31.07;14.97;;;4.80;87.10;;;;;;4979374;28;20030;-78
2020/12/05 02:14:55;;;;;;;25.53;12.33;;;4.80;87.10;;;;;;4979452;28;20029;-78
2020/12/05 02:17:22;;;;;;;29.25;13.98;;;4.80;87.40;;;;;;4979169;28;20050;-78
2020/12/05 02:19:50;;;;;;;26.67;12.63;;;4.80;87.10;;;;;;4979510;28;20027;-78
2020/12/05 02:22:30;;;;;;;34.77;14.40;;;4.80;87.60;;;;;;4978756;28;20030;-78
2020/12/05 02:24:59;;;;;;;28.90;13.80;;;4.80;87.60;;;;;;4995496;28;20062;-77
2020/12/05 02:27:26;;;;;;;27.07;12.60;;;4.80;87.80;;;;;;4978835;28;20046;-78
2020/12/05 02:29:51;;;;;;;29.77;14.00;;;4.70;88.20;;;;;;4996633;28;20097;-78
2020/12/05 02:32:17;;;;;;;28.07;12.60;;;4.80;88.20;;;;;;4995965;28;20057;-78
2020/12/05 02:34:43;;;;;;;28.13;13.27;;;4.80;88.10;;;;;;4979148;28;20085;-78
2020/12/05 02:37:15;;;;;;;28.17;12.33;;;4.80;87.80;;;;;;4996321;28;20053;-79
2020/12/05 02:39:42;;;;;;;;;;;4.80;88.40;;;;;;4979539;28;20170;-79
2020/12/05 02:42:12;;;;;;;25.87;12.17;;;4.80;88.50;;;;;;4996352;28;19912;-79
2020/12/05 02:44:48;;;;;;;24.20;12.20;;;4.80;88.40;;;;;;4978869;28;20109;-78
2020/12/05 02:47:15;;;;;;;25.03;12.27;;;4.80;88.70;;;;;;4977278;28;20030;-79
2020/12/05 02:49:41;;;;;;;23.83;12.60;;;4.80;89.10;;;;;;4977024;28;20054;-78
2020/12/05 02:52:06;;;;;;;27.33;12.83;;;4.80;89.30;;;;;;4976887;28;20034;-78
2020/12/05 02:54:32;;;;;;;24.13;11.90;;;4.90;89.60;;;;;;4959069;28;20022;-78
2020/12/05 02:56:59;;;;;;;22.53;11.60;;;4.90;89.60;;;;;;4959761;28;20022;-78
2020/12/05 02:59:26;;;;;;;21.70;11.10;;;4.90;89.90;;;;;;4976124;28;20109;-79
2020/12/05 03:01:52;;;;;;;23.50;11.50;;;5.00;90.00;;;;;;4959343;28;20019;-77
2020/12/05 03:04:17;;;;;;;22.33;11.50;;;4.90;90.00;;;;;;4975997;28;20158;-79
2020/12/05 03:06:43;;;;;;;25.73;12.17;;;5.00;90.00;;;;;;4959205;28;20478;-78
2020/12/05 03:09:09;;;;;;;20.63;10.90;;;5.00;90.10;;;;;;4959295;28;20027;-78
2020/12/05 03:11:34;;;;;;;24.00;10.33;;;4.90;90.20;;;;;;4975961;28;20097;-79
2020/12/05 03:14:00;;;;;;;22.40;11.43;;;4.90;90.30;;;;;;4959465;28;20082;-79
2020/12/05 03:16:26;;;;;;;19.50;10.90;;;4.90;90.30;;;;;;4959181;28;20094;-79
2020/12/05 03:18:51;;;;;;;21.00;10.53;;;4.90;90.40;;;;;;4976879;28;20023;-79
2020/12/05 03:21:17;;;;;;;15.80;9.27;;;4.90;90.30;;;;;;4959002;28;20023;-79
2020/12/05 03:23:45;;;;;;;15.33;8.57;;;4.90;90.40;;;;;;4976655;28;20034;-78
2020/12/05 03:26:12;;;;;;;14.67;7.50;;;5.00;90.50;;;;;;4959377;28;20371;-78
2020/12/05 03:28:38;;;;;;;13.87;7.30;;;5.00;90.50;;;;;;4958942;28;20022;-77
2020/12/05 03:31:04;;;;;;;11.60;6.00;;;5.00;90.40;;;;;;4959232;28;20030;-79
2020/12/05 03:33:32;;;;;;;8.93;5.40;;;5.00;90.30;;;;;;4958638;28;20030;-79
2020/12/05 03:35:57;;;;;;;5.23;3.47;;;4.90;90.20;;;;;;4958747;28;20057;-79
2020/12/05 03:38:23;;;;;;;5.37;3.20;;;4.90;90.10;;;;;;4958563;28;20058;-78
2020/12/05 03:40:48;;;;;;;4.97;3.37;;;4.90;90.20;;;;;;4958834;28;20026;-79
2020/12/05 03:43:14;;;;;;;4.70;2.77;;;4.90;90.10;;;;;;4958684;28;20022;-80
2020/12/05 03:45:40;;;;;;;3.20;2.30;;;4.80;90.00;;;;;;4959038;28;20023;-78
2020/12/05 03:48:05;;;;;;;3.70;2.27;;;4.80;90.10;;;;;;4958521;28;20495;-78
2020/12/05 03:50:31;;;;;;;3.17;2.20;;;4.80;90.10;;;;;;4974908;28;20031;-78
2020/12/05 03:52:56;;;;;;;3.53;2.27;;;4.80;90.10;;;;;;4958581;28;20447;-78
2020/12/05 03:55:22;;;;;;;4.93;2.03;;;4.80;90.10;;;;;;4957811;28;20114;-78
2020/12/05 03:57:48;;;;;;;2.60;1.67;;;4.80;90.00;;;;;;4975395;28;20022;-77
2020/12/05 04:00:13;;;;;;;2.97;2.13;;;4.80;90.10;;;;;;4975305;28;20029;-77
2020/12/05 04:02:39;;;;;;;2.27;1.80;;;4.80;90.10;;;;;;4957572;28;20058;-77
2020/12/05 04:05:05;;;;;;;1.87;1.50;;;4.80;89.90;;;;;;4957947;28;20089;-78
2020/12/05 04:07:30;;;;;;;2.10;1.43;;;4.80;89.80;;;;;;4957176;28;20113;-78
2020/12/05 04:09:56;;;;;;;1.90;1.30;;;4.80;89.80;;;;;;4975141;28;20444;-77
2020/12/05 04:12:22;;;;;;;1.90;1.13;;;4.70;89.90;;;;;;4974674;28;20085;-78
2020/12/05 04:14:47;;;;;;;2.27;1.20;;;4.70;89.90;;;;;;4958076;28;20023;-78
2020/12/05 04:17:13;;;;;;;2.00;1.33;;;4.70;89.90;;;;;;4974972;28;20034;-77
2020/12/05 04:19:39;;;;;;;1.67;1.10;;;4.70;90.00;;;;;;4957107;28;20093;-78
2020/12/05 04:22:04;;;;;;;1.27;0.97;;;4.70;89.60;;;;;;4957770;28;20026;-77
2020/12/05 04:24:30;;;;;;;1.13;0.90;;;4.70;89.90;;;;;;4957220;28;20030;-78
2020/12/05 04:26:55;;;;;;;1.20;1.00;;;4.70;89.80;;;;;;4957624;28;20026;-78
2020/12/05 04:29:21;;;;;;;0.83;0.70;;;4.70;90.00;;;;;;4957252;28;20026;-78
2020/12/05 04:31:47;;;;;;;1.37;0.70;;;4.60;89.90;;;;;;4957453;28;20022;-77
2020/12/05 04:34:12;;;;;;;2.37;0.83;;;4.60;89.90;;;;;;4957793;28;20348;-78
2020/12/05 04:36:38;;;;;;;0.97;0.87;;;4.60;89.60;;;;;;4974659;28;20030;-77
2020/12/05 04:39:04;;;;;;;1.10;0.87;;;4.60;89.50;;;;;;4961507;28;20046;-78
2020/12/05 04:41:29;;;;;;;0.87;0.60;;;4.60;89.60;;;;;;4973683;28;20030;-78
2020/12/05 04:43:56;;;;;;;0.57;0.43;;;4.60;89.60;;;;;;4974084;28;20037;-78
2020/12/05 04:46:21;;;;;;;2.63;0.77;;;4.60;89.60;;;;;;4973231;28;20031;-79
2020/12/05 04:48:48;;;;;;;0.87;0.57;;;4.60;89.50;;;;;;4973760;28;20093;-78
2020/12/05 04:51:20;;;;;;;0.80;0.57;;;4.50;89.40;;;;;;4973511;28;20019;-79
2020/12/05 04:53:47;;;;;;;0.88;0.45;;;4.60;89.60;;;;;;4973809;28;20027;-79
2020/12/05 04:56:16;;;;;;;0.60;0.50;;;4.60;89.60;;;;;;4973816;28;20031;-78
2020/12/05 04:58:49;;;;;;;1.23;0.40;;;4.60;89.40;;;;;;4973080;28;20526;-77
2020/12/05 05:01:19;;;;;;;0.60;0.60;;;4.60;89.40;;;;;;4973571;28;20019;-78
2020/12/05 05:03:45;;;;;;;0.40;0.40;;;4.50;89.30;;;;;;4974392;28;20027;-78
2020/12/05 05:06:21;;;;;;;0.43;0.30;;;4.50;89.70;;;;;;4973127;28;20035;-78
2020/12/05 05:08:47;;;;;;;0.40;0.30;;;4.50;89.70;;;;;;4974536;28;20047;-78
2020/12/05 05:11:15;;;;;;;0.57;0.50;;;4.50;89.70;;;;;;4973431;28;20022;-78
2020/12/05 05:13:57;;;;;;;0.33;0.33;;;4.50;89.70;;;;;;4972781;28;20085;-78
2020/12/05 05:16:26;;;;;;;0.73;0.40;;;4.50;89.70;;;;;;4974271;28;20345;-79
2020/12/05 05:18:53;;;;;;;0.27;0.20;;;4.50;89.80;;;;;;4976345;28;20027;-78
2020/12/05 05:21:39;;;;;;;0.50;0.40;;;4.50;89.80;;;;;;4978310;28;20106;-78
2020/12/05 05:24:21;;;;;;;0.90;0.40;;;4.50;89.70;;;;;;4976944;28;20050;-79
2020/12/05 05:27:08;;;;;;;0.90;0.45;;;4.50;89.40;;;;;;4977282;28;20078;-78
2020/12/05 05:29:43;;;;;;;0.70;0.40;;;4.50;89.40;;;;;;4976815;28;20027;-78
2020/12/05 05:32:19;;;;;;;1.20;0.40;;;4.50;89.40;;;;;;4977310;28;20019;-78
2020/12/05 05:34:46;;;;;;;1.47;0.43;;;4.50;89.20;;;;;;4978345;28;20029;-79
2020/12/05 05:37:16;;;;;;;0.17;0.17;;;4.50;89.20;;;;;;4977047;28;20117;-78
2020/12/05 05:39:55;;;;;;;0.97;0.40;;;4.50;89.40;;;;;;4976105;28;20061;-79
2020/12/05 05:42:28;;;;;;;0.33;0.30;;;4.50;89.30;;;;;;4976285;28;20122;-79
2020/12/05 05:45:23;;;;;;;0.77;0.30;;;4.50;89.60;;;;;;4976829;28;20486;-78
2020/12/05 05:47:52;;;;;;;0.87;0.40;;;4.50;89.60;;;;;;4977824;28;20033;-78
2020/12/05 05:50:32;;;;;;;1.00;0.40;;;4.50;89.60;;;;;;4976473;28;20023;-78
2020/12/05 05:53:03;;;;;;;0.43;0.30;;;4.50;89.40;;;;;;4976241;28;20121;-78
2020/12/05 05:55:48;;;;;;;0.50;0.40;;;4.50;89.50;;;;;;4977364;28;20023;-79
2020/12/05 05:58:19;;;;;;;0.70;0.30;;;4.40;89.50;;;;;;4976428;28;20093;-77
2020/12/05 06:00:46;;;;;;;0.50;0.30;;;4.50;89.60;;;;;;4975917;28;20114;-75
2020/12/05 06:03:16;;;;;;;0.90;0.40;;;4.50;89.50;;;;;;4976337;28;20038;-75
2020/12/05 06:05:45;;;;;;;2.43;0.30;;;4.60;89.40;;;;;;4977026;28;20031;-76
2020/12/05 06:08:15;;;;;;;1.67;0.70;;;4.60;89.10;;;;;;4976400;28;20380;-76
2020/12/05 06:10:44;;;;;;;1.70;1.00;;;4.60;89.10;;;;;;4975817;28;20033;-76
2020/12/05 06:13:15;;;;;;;0.77;0.60;;;4.60;89.30;;;;;;4976315;28;20029;-76
2020/12/05 06:15:40;;;;;;;1.03;0.30;;;4.60;89.10;;;;;;4975723;28;20089;-76
2020/12/05 06:18:06;;;;;;;0.40;0.30;;;4.60;89.20;;;;;;4976180;28;20031;-76
2020/12/05 06:20:36;;;;;;;0.40;0.40;;;4.50;89.30;;;;;;4975756;28;20444;-76
2020/12/05 06:23:07;;;;;;;0.97;0.50;;;4.60;89.20;;;;;;4975782;28;20167;-76
2020/12/05 06:25:33;;;;;;;0.90;0.50;;;4.60;89.20;;;;;;4977308;28;20030;-76
2020/12/05 06:28:06;;;;;;;1.93;0.53;;;6.60;90.10;;;;;;4976202;28;20077;-76
2020/12/05 06:30:31;;;;;;;0.73;0.50;;;4.60;88.60;;;;;;4975627;28;20023;-77
2020/12/05 06:32:57;;;;;;;1.03;0.43;;;4.60;88.60;;;;;;4977413;28;20037;-77
2020/12/05 06:35:23;;;;;;;1.90;0.40;;;4.60;88.40;;;;;;4975868;28;20045;-75
2020/12/05 06:37:53;;;;;;;0.50;0.40;;;4.60;88.90;;;;;;4975617;28;20053;-75
2020/12/05 06:40:20;;;;;;;1.43;0.47;;;4.60;89.00;;;;;;4976303;28;20053;-75
2020/12/05 06:42:48;;;;;;;0.90;0.40;;;4.60;89.00;;;;;;4958861;28;20066;-76
2020/12/05 06:45:26;;;;;;;0.93;0.43;;;4.60;89.00;;;;;;4959540;28;20026;-75
2020/12/05 06:47:52;;;;;;;0.47;0.40;;;4.60;88.80;;;;;;4959671;28;20078;-76
2020/12/05 06:50:45;;;;;;;0.73;0.30;;;4.50;89.00;;;;;;4977173;28;20081;-76
2020/12/05 06:53:19;;;;;;;;;;;4.40;89.00;;;;;;4957092;28;20030;-76
2020/12/05 06:55:46;;;;;;;0.60;0.30;;;4.40;89.20;;;;;;4958700;28;20004;-75
2020/12/05 06:58:12;;;;;;;0.87;0.33;;;4.40;89.20;;;;;;4976636;28;20027;-78
2020/12/05 07:00:38;;;;;;;0.87;0.67;;;4.40;89.20;;;;;;4976042;28;20099;-79
2020/12/05 07:03:08;;;;;;;0.77;0.60;;;4.40;89.20;;;;;;4959000;28;20026;-79
2020/12/05 07:05:40;;;;;;;0.90;0.60;;;4.40;89.00;;;;;;4958795;28;20031;-79
2020/12/05 07:08:30;;;;;;;2.42;0.65;;;4.30;89.10;;;;;;4976299;28;20029;-79
2020/12/05 07:11:25;;;;;;;1.27;0.70;;;4.20;88.50;;;;;;4959306;28;20031;-76
2020/12/05 07:13:52;;;;;;;0.70;0.60;;;4.20;88.60;;;;;;4943278;28;20030;-76
2020/12/05 07:16:21;;;;;;;0.67;0.40;;;4.00;88.60;;;;;;4959506;28;20037;-76
2020/12/05 07:18:52;;;;;;;0.87;0.40;;;4.20;89.00;;;;;;4958736;28;20034;-76
2020/12/05 07:21:19;;;;;;;0.63;0.43;;;;;;;;;;4959466;28;20474;-75
2020/12/05 07:23:46;;;;;;;2.10;0.60;;;4.10;88.40;;;;;;4958125;28;20114;-76
2020/12/05 07:26:13;;;;;;;0.50;0.40;;;4.10;88.40;;;;;;4959012;28;20035;-77
2020/12/05 07:28:44;;;;;;;4.20;0.80;;;4.10;89.00;;;;;;4975909;28;20093;-77
2020/12/05 07:31:10;;;;;;;1.27;0.80;;;4.00;89.00;;;;;;4976415;28;20030;-77
2020/12/05 07:33:38;;;;;;;2.53;0.90;;;4.00;89.20;;;;;;4975672;28;20035;-77
2020/12/05 07:36:08;;;;;;;3.57;1.40;;;4.00;90.00;;;;;;4976346;28;20400;-76
2020/12/05 07:38:35;;;;;;;1.97;1.40;;;4.10;90.00;;;;;;4958356;28;20027;-76
2020/12/05 07:41:12;;;;;;;1.67;1.00;;;4.10;89.50;;;;;;4958096;28;20023;-76
2020/12/05 07:43:38;;;;;;;1.03;0.77;;;4.20;89.20;;;;;;4957962;28;20031;-77
2020/12/05 07:46:08;;;;;;;1.37;0.90;;;4.20;89.20;;;;;;4958923;28;20035;-76
2020/12/05 07:48:35;;;;;;;2.23;1.23;;;4.20;89.10;;;;;;4958301;28;20026;-76
2020/12/05 07:51:01;;;;;;;2.00;1.40;;;4.20;89.90;;;;;;4958753;28;20035;-76
2020/12/05 07:53:32;;;;;;;2.40;1.50;;;4.30;89.50;;;;;;4958452;28;20375;-76
2020/12/05 07:56:10;;;;;;;2.03;1.47;;;4.30;89.80;;;;;;4958596;28;20469;-77
2020/12/05 07:58:52;;;;;;;2.33;1.33;;;4.30;89.70;;;;;;4958312;28;20022;-76
2020/12/05 08:01:43;;;;;;;2.53;1.30;;;4.40;89.70;;;;;;4958602;28;20027;-76
2020/12/05 08:04:12;;;;;;;2.37;0.90;;;4.40;89.00;;;;;;4975424;28;20023;-76
2020/12/05 08:07:00;;;;;;;2.10;1.50;;;4.40;89.60;;;;;;4957865;28;20027;-76
2020/12/05 08:09:34;;;;;;;2.87;1.13;;;4.50;89.60;;;;;;4975327;28;20027;-76
2020/12/05 08:12:01;;;;;;;1.93;1.33;;;4.50;89.40;;;;;;4958332;28;20035;-76
2020/12/05 08:14:31;;;;;;;2.03;1.33;;;4.50;89.50;;;;;;4957987;28;20415;-76
2020/12/05 08:17:01;;;;;;;2.40;1.30;;;4.50;89.60;;;;;;4958192;28;20071;-76
2020/12/05 08:19:27;;;;;;;2.87;1.40;;;4.50;89.40;;;;;;4975367;28;20034;-76
2020/12/05 08:21:53;;;;;;;2.63;1.10;;;4.60;89.40;;;;;;4957530;28;20029;-76
2020/12/05 08:24:19;;;;;;;4.23;1.43;;;4.60;89.90;;;;;;4957899;28;20031;-76
2020/12/05 08:26:49;;;;;;;2.53;1.40;;;4.60;89.40;;;;;;4957621;28;20027;-76
2020/12/05 08:29:16;;;;;;;3.10;1.30;;;4.60;89.80;;;;;;4975307;28;20019;-76
2020/12/05 08:31:43;;;;;;;1.30;1.10;;;;;;;;;;4957330;28;20023;-75
2020/12/05 08:34:08;;;;;;;2.20;1.40;;;4.60;88.70;;;;;;4974864;28;20029;-75
2020/12/05 08:36:37;;;;;;;3.10;1.30;;;4.70;89.70;;;;;;4974289;28;20105;-76
2020/12/05 08:39:08;;;;;;;2.33;1.30;;;4.70;89.70;;;;;;4959189;28;20111;-76
2020/12/05 08:41:44;;;;;;;2.30;1.30;;;4.70;89.60;;;;;;4973357;28;20113;-77
2020/12/05 08:44:15;;;;;;;1.80;1.27;;;4.60;89.40;;;;;;4973905;28;20035;-76
2020/12/05 08:46:42;;;;;;;0.87;0.77;;;4.60;89.40;;;;;;4973332;28;20058;-77
2020/12/05 08:49:19;;;;;;;1.77;1.37;;;4.60;89.40;;;;;;4974036;28;20022;-77
2020/12/05 08:51:51;;;;;;;2.27;1.40;;;4.70;89.50;;;;;;4973641;28;20027;-77
2020/12/05 08:54:17;;;;;;;1.75;1.38;;;4.70;89.40;;;;;;4974782;28;20093;-76
2020/12/05 08:56:43;;;;;;;1.43;1.33;;;4.70;89.30;;;;;;4973248;28;20399;-76
2020/12/05 08:59:09;;;;;;;1.87;1.33;;;4.70;89.60;;;;;;4973580;28;20463;-76
2020/12/05 09:01:43;;;;;;;1.33;1.20;;;4.70;89.60;;;;;;4976155;28;20029;-76
2020/12/05 09:04:12;;;;;;;2.80;1.20;;;4.70;89.50;;;;;;4976988;28;20073;-76
2020/12/05 09:06:39;;;;;;;2.60;1.50;;;4.70;89.60;;;;;;4993514;28;20030;-76
2020/12/05 09:09:05;;;;;;;2.87;1.60;;;4.80;89.80;;;;;;4994231;28;20515;-77
2020/12/05 09:11:30;;;;;;;2.20;1.47;;;4.80;90.00;;;;;;4975962;28;20105;-77
2020/12/05 09:13:56;;;;;;;2.80;1.87;;;4.80;90.00;;;;;;4989112;28;20027;-76
2020/12/05 09:16:32;;;;;;;2.00;1.80;;;4.90;90.10;;;;;;4975265;28;20106;-77
2020/12/05 09:18:58;;;;;;;3.67;2.20;;;4.90;90.00;;;;;;4976362;28;20026;-77
2020/12/05 09:21:23;;;;;;;2.73;2.10;;;4.90;90.00;;;;;;4992952;28;20026;-78
2020/12/05 09:24:04;;;;;;;3.27;2.40;;;4.90;89.80;;;;;;4976074;28;20019;-78
2020/12/05 09:26:32;;;;;;;2.60;2.00;;;5.00;89.80;;;;;;4976909;28;20026;-76
2020/12/05 09:28:58;;;;;;;2.93;2.00;;;5.00;89.80;;;;;;4993423;28;20500;-76
2020/12/05 09:31:23;;;;;;;4.90;2.03;;;5.00;89.60;;;;;;4966225;28;20113;-77
2020/12/05 09:33:49;;;;;;;2.60;1.80;;;5.00;89.60;;;;;;4956847;28;20027;-77
2020/12/05 09:36:14;;;;;;;2.83;1.70;;;5.00;89.60;;;;;;4957103;28;20031;-77
2020/12/05 09:38:40;;;;;;;1.53;1.30;;;5.00;89.50;;;;;;4973896;28;20030;-76
2020/12/05 09:41:06;;;;;;;1.87;1.60;;;5.10;89.70;;;;;;4977016;28;20158;-76
2020/12/05 09:43:31;;;;;;;2.13;1.50;;;5.00;89.80;;;;;;4957344;28;20030;-76
2020/12/05 09:45:57;;;;;;;3.03;1.77;;;5.10;90.00;;;;;;4956996;28;20062;-76
2020/12/05 09:48:22;;;;;;;2.00;1.80;;;5.10;89.60;;;;;;4974314;28;20019;-76
2020/12/05 09:50:48;;;;;;;2.87;1.80;;;5.10;89.20;;;;;;4961873;28;20375;-77
2020/12/05 09:53:14;;;;;;;2.00;1.80;;;5.10;88.90;;;;;;4992756;28;20443;-78
2020/12/05 09:55:40;;;;;;;2.57;1.90;;;5.20;89.00;;;;;;4992353;28;20019;-77
2020/12/05 09:58:05;;;;;;;2.13;1.70;;;5.20;89.10;;;;;;4992630;28;20419;-76
2020/12/05 10:00:31;;;;;;;3.20;1.73;;;5.20;89.00;;;;;;4991345;28;20482;-76
2020/12/05 10:02:57;;;;;;;2.03;1.73;;;5.30;88.90;;;;;;4976302;28;20034;-76
2020/12/05 10:05:23;;;;;;;3.47;1.90;;;5.20;88.90;;;;;;4979860;28;20537;-77
2020/12/05 10:07:49;;;;;;;2.93;2.00;;;5.20;89.10;;;;;;4975818;28;20374;-78
2020/12/05 10:10:15;;;;;;;2.90;1.90;;;5.30;89.20;;;;;;4972704;28;20027;-76
2020/12/05 10:12:46;;;;;;;3.57;1.40;;;5.30;89.40;;;;;;4986251;28;20504;-76
2020/12/05 10:15:13;;;;;;;2.58;1.92;;;5.30;89.30;;;;;;4970676;28;20037;-76
2020/12/05 10:17:43;;;;;;;3.40;2.03;;;5.30;89.40;;;;;;4984444;28;20042;-79
2020/12/05 10:20:09;;;;;;;3.03;2.07;;;5.30;89.20;;;;;;4973218;28;20027;-77
2020/12/05 10:22:35;;;;;;;2.83;2.07;;;5.40;89.30;;;;;;4984497;28;20119;-76
2020/12/05 10:25:02;;;;;;;4.17;2.37;;;5.40;89.50;;;;;;4976362;28;20494;-81
2020/12/05 10:27:28;;;;;;;4.00;2.60;;;5.40;89.30;;;;;;4981473;28;20034;-82
2020/12/05 10:29:54;;;;;;;3.47;2.50;;;5.40;89.40;;;;;;4960858;28;20030;-77
2020/12/05 10:32:20;;;;;;;3.63;2.30;;;5.40;89.40;;;;;;4977381;28;20391;-74
2020/12/05 10:34:45;;;;;;;4.07;2.60;;;5.40;89.50;;;;;;4957173;28;20491;-75
2020/12/05 10:37:11;;;;;;;4.10;2.53;;;5.50;89.60;;;;;;4957572;28;20380;-77
2020/12/05 10:39:37;;;;;;;5.50;3.10;;;5.50;89.40;;;;;;4947966;28;20055;-75
2020/12/05 10:42:02;;;;;;;10.77;2.60;;;5.40;89.50;;;;;;4938214;29;20104;-76
2020/12/05 10:44:28;;;;;;;5.47;2.20;;;5.40;89.80;;;;;;4940353;29;20150;-75
2020/12/05 10:46:54;;;;;;;4.10;2.33;;;5.60;89.50;;;;;;4963026;28;20479;-76
2020/12/05 10:49:20;;;;;;;3.30;2.27;;;5.50;89.00;;;;;;4975249;28;20023;-76
2020/12/05 10:51:49;;;;;;;3.33;2.10;;;5.50;88.80;;;;;;4951338;29;20074;-75
2020/12/05 10:54:15;;;;;;;5.10;2.20;;;5.50;88.90;;;;;;4938233;29;20059;-76
2020/12/05 10:56:41;;;;;;;3.40;1.97;;;5.50;88.90;;;;;;4942141;28;20118;-76
2020/12/05 10:59:07;;;;;;;4.63;2.37;;;5.50;88.90;;;;;;4956137;28;20121;-77
2020/12/05 11:01:33;;;;;;;3.37;2.00;;;5.60;89.00;;;;;;4974446;28;20054;-78
2020/12/05 11:03:59;;;;;;;3.97;2.13;;;5.60;88.80;;;;;;4974820;28;20113;-79
2020/12/05 11:06:26;;;;;;;5.37;2.43;;;5.60;89.30;;;;;;4941724;29;20067;-78
2020/12/05 11:08:52;;;;;;;2.90;2.10;;;5.60;89.60;;;;;;4943025;28;20122;-77
2020/12/05 11:11:18;;;;;;;4.47;2.57;;;5.70;88.80;;;;;;4952198;28;20456;-77
2020/12/05 11:13:44;;;;;;;4.40;2.50;;;5.70;88.70;;;;;;4952761;28;20034;-78
2020/12/05 11:16:09;;;;;;;2.67;1.97;;;5.70;88.60;;;;;;4972411;28;20035;-78
2020/12/05 11:18:35;;;;;;;3.30;1.97;;;5.70;88.90;;;;;;4974974;28;20029;-78
2020/12/05 11:21:01;;;;;;;2.23;1.70;;;5.70;88.90;;;;;;4957198;28;20456;-78
2020/12/05 11:23:27;;;;;;;2.90;2.30;;;5.70;88.80;;;;;;4956943;28;20070;-77
2020/12/05 11:25:52;;;;;;;4.97;2.40;;;5.80;88.70;;;;;;4954093;28;20472;-80
2020/12/05 11:28:18;;;;;;;3.57;2.20;;;5.80;88.40;;;;;;4961573;28;20030;-78
2020/12/05 11:30:43;;;;;;;3.67;1.73;;;5.80;88.70;;;;;;4938811;29;20032;-79
2020/12/05 11:33:09;;;;;;;2.33;1.70;;;5.90;88.70;;;;;;4959372;28;20487;-79
2020/12/05 11:35:35;;;;;;;2.73;1.90;;;5.90;88.40;;;;;;4956398;28;20026;-81
2020/12/05 11:38:01;;;;;;;3.40;2.43;;;5.90;88.60;;;;;;4973782;28;20468;-82
2020/12/05 11:40:27;;;;;;;2.53;2.00;;;5.90;88.40;;;;;;4956028;28;20059;-80
2020/12/05 11:42:53;;;;;;;1.80;1.53;;;5.90;88.00;;;;;;4957637;28;20038;-77
2020/12/05 11:45:18;;;;;;;2.50;1.70;;;6.00;88.20;;;;;;4974959;28;20472;-76
2020/12/05 11:47:44;;;;;;;2.50;1.67;;;5.90;87.80;;;;;;4957087;28;20027;-81
2020/12/05 11:50:10;;;;;;;2.10;1.53;;;6.00;88.00;;;;;;4966281;28;20027;-78
2020/12/05 11:52:35;;;;;;;2.90;2.10;;;6.00;88.00;;;;;;4940714;29;20043;-77
2020/12/05 11:55:01;;;;;;;2.30;1.67;;;6.00;87.60;;;;;;4953118;28;20022;-78
2020/12/05 11:57:27;;;;;;;2.27;1.60;;;6.00;87.20;;;;;;4951271;28;20058;-78
2020/12/05 11:59:52;;;;;;;4.23;2.00;;;6.00;87.20;;;;;;4945402;29;20486;-78
2020/12/05 12:02:18;;;;;;;2.90;1.60;;;5.90;87.10;;;;;;4938246;29;20031;-78
2020/12/05 12:04:43;;;;;;;3.13;1.87;;;5.90;87.10;;;;;;4962495;28;20447;-79
2020/12/05 12:07:09;;;;;;;2.93;2.13;;;6.00;87.30;;;;;;4967195;28;20106;-79
2020/12/05 12:09:35;;;;;;;2.93;2.10;;;5.90;87.40;;;;;;4961647;28;20039;-78
2020/12/05 12:12:01;;;;;;;3.60;2.03;;;5.90;87.80;;;;;;4940118;29;20023;-77
2020/12/05 12:14:27;;;;;;;2.97;2.20;;;5.90;88.10;;;;;;4954997;28;20126;-77
2020/12/05 12:16:52;;;;;;;3.87;2.13;;;5.90;88.30;;;;;;4956456;28;20429;-76
2020/12/05 12:19:18;;;;;;;2.90;2.33;;;5.90;88.40;;;;;;4943283;28;20027;-76
2020/12/05 12:21:44;;;;;;;2.93;2.30;;;6.00;88.20;;;;;;4968271;28;20059;-79
2020/12/05 12:24:09;;;;;;;3.50;2.70;;;6.00;88.30;;;;;;4972505;28;20379;-78
2020/12/05 12:26:35;;;;;;;3.47;2.67;;;5.90;88.20;;;;;;4971175;28;20376;-77
2020/12/05 12:29:00;;;;;;;4.47;2.60;;;5.90;88.50;;;;;;4937958;29;20110;-78
2020/12/05 12:31:27;;;;;;;3.13;2.30;;;;;;;;;;4938214;29;20035;-79
2020/12/05 12:33:52;;;;;;;4.53;2.80;;;6.00;88.00;;;;;;4954877;29;20035;-77
2020/12/05 12:36:18;;;;;;;3.43;2.50;;;6.10;88.30;;;;;;4954831;29;20041;-77
2020/12/05 12:38:44;;;;;;;6.60;3.20;;;6.10;88.00;;;;;;4939101;28;20234;-77
2020/12/05 12:41:14;;;;;;;4.20;2.80;;;6.20;88.00;;;;;;4966094;28;20035;-80
2020/12/05 12:43:40;;;;;;;4.17;2.83;;;6.20;87.70;;;;;;4956643;28;20035;-78
2020/12/05 12:46:06;;;;;;;4.00;2.67;;;6.10;88.50;;;;;;4985578;28;20037;-78
2020/12/05 12:50:57;;;;;;;5.83;3.80;;;6.20;87.70;;;;;;4980632;28;20030;-78
2020/12/05 12:53:23;;;;;;;5.30;3.47;;;6.20;87.70;;;;;;4974711;28;20033;-78
2020/12/05 12:55:49;;;;;;;6.07;3.87;;;6.20;87.50;;;;;;4975820;28;20047;-78
2020/12/05 12:58:22;;;;;;;5.70;3.80;;;6.30;87.20;;;;;;4976500;28;20075;-78
2020/12/05 13:00:48;;;;;;;5.90;3.60;;;6.30;86.80;;;;;;4960484;28;20069;-79